sensor_id;sensor_type;location;lat;lon;timestamp;P1;durP1;ratioP1;P2;durP2;ratioP2
68509;SDS011;55512;50.102;19.958;2023-12-20T00:01:02;14.90;;;6.60;;
68509;SDS011;55512;50.102;19.958;2023-12-20T00:03:28;15.70;;;7.20;;
68509;SDS011;55512;50.102;19.958;2023-12-20T00:05:53;14.40;;;6.70;;
68509;SDS011;55512;50.102;19.958;2023-12-20T00:08:18;18.90;;;8.70;;
68509;SDS011;55512;50.102;19.958;2023-12-20T00:10:44;16.30;;;8.20;;
68509;SDS011;55512;50.102;19.958;2023-12-20T00:13:10;17.60;;;7.40;;
68509;SDS011;55512;50.102;19.958;2023-12-20T00:15:36;16.90;;;7.20;;
68509;SDS011;55512;50.102;19.958;2023-12-20T00:18:01;18.30;;;8.40;;
68509;SDS011;55512;50.102;19.958;2023-12-20T00:20:27;19.10;;;8.70;;
68509;SDS011;55512;50.102;19.958;2023-12-20T00:22:56;16.20;;;7.70;;
68509;SDS011;55512;50.102;19.958;2023-12-20T00:25:25;16.60;;;7.60;;
68509;SDS011;55512;50.102;19.958;2023-12-20T00:27:51;15.50;;;6.70;;
68509;SDS011;55512;50.102;19.958;2023-12-20T00:30:17;17.20;;;6.60;;
68509;SDS011;55512;50.102;19.958;2023-12-20T00:32:43;18.40;;;7.20;;
68509;SDS011;55512;50.102;19.958;2023-12-20T00:35:15;16.30;;;7.00;;
68509;SDS011;55512;50.102;19.958;2023-12-20T00:37:41;17.50;;;7.60;;
68509;SDS011;55512;50.102;19.958;2023-12-20T00:40:08;15.80;;;6.70;;
68509;SDS011;55512;50.102;19.958;2023-12-20T00:42:33;13.80;;;6.30;;
68509;SDS011;55512;50.102;19.958;2023-12-20T00:44:59;15.00;;;7.20;;
68509;SDS011;55512;50.102;19.958;2023-12-20T00:47:25;14.00;;;6.10;;
68509;SDS011;55512;50.102;19.958;2023-12-20T00:49:51;10.60;;;5.00;;
68509;SDS011;55512;50.102;19.958;2023-12-20T00:52:17;12.10;;;4.60;;
68509;SDS011;55512;50.102;19.958;2023-12-20T00:54:43;12.80;;;4.80;;
68509;SDS011;55512;50.102;19.958;2023-12-20T00:57:09;8.90;;;4.00;;
68509;SDS011;55512;50.102;19.958;2023-12-20T00:59:35;10.90;;;4.70;;
68509;SDS011;55512;50.102;19.958;2023-12-20T01:02:01;12.30;;;5.40;;
68509;SDS011;55512;50.102;19.958;2023-12-20T01:04:26;10.40;;;4.40;;
68509;SDS011;55512;50.102;19.958;2023-12-20T01:06:52;8.70;;;4.20;;
68509;SDS011;55512;50.102;19.958;2023-12-20T01:09:18;9.80;;;3.90;;
68509;SDS011;55512;50.102;19.958;2023-12-20T01:11:44;11.40;;;4.90;;
68509;SDS011;55512;50.102;19.958;2023-12-20T01:14:11;11.70;;;5.20;;
68509;SDS011;55512;50.102;19.958;2023-12-20T01:16:37;11.10;;;5.30;;
68509;SDS011;55512;50.102;19.958;2023-12-20T01:19:02;10.90;;;4.30;;
68509;SDS011;55512;50.102;19.958;2023-12-20T01:21:28;9.90;;;4.50;;
68509;SDS011;55512;50.102;19.958;2023-12-20T01:23:53;11.60;;;5.80;;
68509;SDS011;55512;50.102;19.958;2023-12-20T01:26:18;9.70;;;4.70;;
68509;SDS011;55512;50.102;19.958;2023-12-20T01:28:44;12.40;;;5.20;;
68509;SDS011;55512;50.102;19.958;2023-12-20T01:31:10;11.90;;;5.10;;
68509;SDS011;55512;50.102;19.958;2023-12-20T01:33:35;10.70;;;4.80;;
68509;SDS011;55512;50.102;19.958;2023-12-20T01:36:00;9.60;;;4.30;;
68509;SDS011;55512;50.102;19.958;2023-12-20T01:38:26;10.50;;;4.20;;
68509;SDS011;55512;50.102;19.958;2023-12-20T01:40:51;12.40;;;4.30;;
68509;SDS011;55512;50.102;19.958;2023-12-20T01:43:16;10.30;;;4.50;;
68509;SDS011;55512;50.102;19.958;2023-12-20T01:45:42;10.60;;;4.80;;
68509;SDS011;55512;50.102;19.958;2023-12-20T01:48:08;10.50;;;3.90;;
68509;SDS011;55512;50.102;19.958;2023-12-20T01:50:36;9.40;;;4.10;;
68509;SDS011;55512;50.102;19.958;2023-12-20T01:53:03;9.40;;;3.70;;
68509;SDS011;55512;50.102;19.958;2023-12-20T01:55:33;8.90;;;4.10;;
68509;SDS011;55512;50.102;19.958;2023-12-20T01:58:02;8.20;;;3.60;;
68509;SDS011;55512;50.102;19.958;2023-12-20T02:00:29;7.40;;;2.80;;
68509;SDS011;55512;50.102;19.958;2023-12-20T02:02:55;8.90;;;3.60;;
68509;SDS011;55512;50.102;19.958;2023-12-20T02:05:22;7.60;;;3.80;;
68509;SDS011;55512;50.102;19.958;2023-12-20T02:07:49;9.80;;;3.50;;
68509;SDS011;55512;50.102;19.958;2023-12-20T02:10:15;8.20;;;4.10;;
68509;SDS011;55512;50.102;19.958;2023-12-20T02:12:41;10.30;;;3.50;;
68509;SDS011;55512;50.102;19.958;2023-12-20T02:15:06;10.60;;;4.00;;
68509;SDS011;55512;50.102;19.958;2023-12-20T02:17:32;7.80;;;3.40;;
68509;SDS011;55512;50.102;19.958;2023-12-20T02:19:58;8.30;;;3.00;;
68509;SDS011;55512;50.102;19.958;2023-12-20T02:22:24;8.50;;;2.80;;
68509;SDS011;55512;50.102;19.958;2023-12-20T02:24:50;8.90;;;3.40;;
68509;SDS011;55512;50.102;19.958;2023-12-20T02:27:17;8.30;;;3.60;;
68509;SDS011;55512;50.102;19.958;2023-12-20T02:29:46;7.40;;;3.60;;
68509;SDS011;55512;50.102;19.958;2023-12-20T02:32:13;9.10;;;3.60;;
68509;SDS011;55512;50.102;19.958;2023-12-20T02:34:38;9.40;;;3.80;;
68509;SDS011;55512;50.102;19.958;2023-12-20T02:37:04;9.40;;;4.10;;
68509;SDS011;55512;50.102;19.958;2023-12-20T02:39:30;10.40;;;4.00;;
68509;SDS011;55512;50.102;19.958;2023-12-20T02:41:55;10.00;;;4.20;;
68509;SDS011;55512;50.102;19.958;2023-12-20T02:44:21;7.90;;;3.70;;
68509;SDS011;55512;50.102;19.958;2023-12-20T02:46:46;9.20;;;3.50;;
68509;SDS011;55512;50.102;19.958;2023-12-20T02:49:12;7.70;;;3.60;;
68509;SDS011;55512;50.102;19.958;2023-12-20T02:51:37;9.50;;;3.90;;
68509;SDS011;55512;50.102;19.958;2023-12-20T02:54:05;7.90;;;3.20;;
68509;SDS011;55512;50.102;19.958;2023-12-20T02:56:34;10.10;;;4.00;;
68509;SDS011;55512;50.102;19.958;2023-12-20T02:58:59;7.10;;;3.00;;
68509;SDS011;55512;50.102;19.958;2023-12-20T03:01:24;8.80;;;3.60;;
68509;SDS011;55512;50.102;19.958;2023-12-20T03:03:50;7.70;;;3.00;;
68509;SDS011;55512;50.102;19.958;2023-12-20T03:06:17;7.70;;;3.00;;
68509;SDS011;55512;50.102;19.958;2023-12-20T03:08:44;8.60;;;3.20;;
68509;SDS011;55512;50.102;19.958;2023-12-20T03:11:09;7.00;;;3.30;;
68509;SDS011;55512;50.102;19.958;2023-12-20T03:13:35;7.40;;;3.60;;
68509;SDS011;55512;50.102;19.958;2023-12-20T03:16:00;7.20;;;3.20;;
68509;SDS011;55512;50.102;19.958;2023-12-20T03:18:26;7.60;;;3.20;;
68509;SDS011;55512;50.102;19.958;2023-12-20T03:20:53;7.80;;;3.60;;
68509;SDS011;55512;50.102;19.958;2023-12-20T03:23:18;7.70;;;3.00;;
68509;SDS011;55512;50.102;19.958;2023-12-20T03:25:44;7.90;;;3.00;;
68509;SDS011;55512;50.102;19.958;2023-12-20T03:28:09;9.10;;;3.30;;
68509;SDS011;55512;50.102;19.958;2023-12-20T03:30:34;8.00;;;3.10;;
68509;SDS011;55512;50.102;19.958;2023-12-20T03:33:00;7.50;;;3.10;;
68509;SDS011;55512;50.102;19.958;2023-12-20T03:35:25;8.00;;;2.90;;
68509;SDS011;55512;50.102;19.958;2023-12-20T03:37:51;8.20;;;3.50;;
68509;SDS011;55512;50.102;19.958;2023-12-20T03:40:16;7.10;;;3.70;;
68509;SDS011;55512;50.102;19.958;2023-12-20T03:42:42;7.50;;;3.70;;
68509;SDS011;55512;50.102;19.958;2023-12-20T03:45:08;7.40;;;3.30;;
68509;SDS011;55512;50.102;19.958;2023-12-20T03:47:33;7.50;;;3.30;;
68509;SDS011;55512;50.102;19.958;2023-12-20T03:49:59;7.50;;;3.30;;
68509;SDS011;55512;50.102;19.958;2023-12-20T03:52:24;8.70;;;3.70;;
68509;SDS011;55512;50.102;19.958;2023-12-20T03:54:50;8.70;;;3.10;;
68509;SDS011;55512;50.102;19.958;2023-12-20T03:57:15;8.70;;;4.00;;
68509;SDS011;55512;50.102;19.958;2023-12-20T03:59:40;7.80;;;3.50;;
68509;SDS011;55512;50.102;19.958;2023-12-20T04:02:06;7.40;;;3.00;;
68509;SDS011;55512;50.102;19.958;2023-12-20T04:04:31;7.50;;;3.60;;
68509;SDS011;55512;50.102;19.958;2023-12-20T04:06:57;8.30;;;3.30;;
68509;SDS011;55512;50.102;19.958;2023-12-20T04:09:22;7.80;;;3.60;;
68509;SDS011;55512;50.102;19.958;2023-12-20T04:11:48;8.30;;;3.60;;
68509;SDS011;55512;50.102;19.958;2023-12-20T04:14:13;8.40;;;3.10;;
68509;SDS011;55512;50.102;19.958;2023-12-20T04:16:39;8.40;;;3.50;;
68509;SDS011;55512;50.102;19.958;2023-12-20T04:19:04;7.10;;;2.60;;
68509;SDS011;55512;50.102;19.958;2023-12-20T04:21:30;6.90;;;2.60;;
68509;SDS011;55512;50.102;19.958;2023-12-20T04:23:56;4.80;;;1.80;;
68509;SDS011;55512;50.102;19.958;2023-12-20T04:26:22;7.00;;;2.40;;
68509;SDS011;55512;50.102;19.958;2023-12-20T04:28:47;7.80;;;2.70;;
68509;SDS011;55512;50.102;19.958;2023-12-20T04:31:12;5.70;;;2.40;;
68509;SDS011;55512;50.102;19.958;2023-12-20T04:33:38;6.90;;;2.30;;
68509;SDS011;55512;50.102;19.958;2023-12-20T04:36:04;6.50;;;2.10;;
68509;SDS011;55512;50.102;19.958;2023-12-20T04:38:29;5.70;;;2.30;;
68509;SDS011;55512;50.102;19.958;2023-12-20T04:40:55;6.10;;;2.50;;
68509;SDS011;55512;50.102;19.958;2023-12-20T04:43:20;6.90;;;2.70;;
68509;SDS011;55512;50.102;19.958;2023-12-20T04:45:46;8.70;;;2.90;;
68509;SDS011;55512;50.102;19.958;2023-12-20T04:48:12;8.20;;;3.00;;
68509;SDS011;55512;50.102;19.958;2023-12-20T04:50:37;5.90;;;3.20;;
68509;SDS011;55512;50.102;19.958;2023-12-20T04:53:02;6.70;;;2.60;;
68509;SDS011;55512;50.102;19.958;2023-12-20T04:55:28;7.60;;;2.80;;
68509;SDS011;55512;50.102;19.958;2023-12-20T04:57:53;6.40;;;2.30;;
68509;SDS011;55512;50.102;19.958;2023-12-20T05:00:20;6.70;;;3.30;;
68509;SDS011;55512;50.102;19.958;2023-12-20T05:02:45;7.70;;;3.20;;
68509;SDS011;55512;50.102;19.958;2023-12-20T05:05:11;5.70;;;2.60;;
68509;SDS011;55512;50.102;19.958;2023-12-20T05:07:36;4.90;;;2.10;;
68509;SDS011;55512;50.102;19.958;2023-12-20T05:10:02;6.40;;;2.50;;
68509;SDS011;55512;50.102;19.958;2023-12-20T05:12:30;6.00;;;2.20;;
68509;SDS011;55512;50.102;19.958;2023-12-20T05:14:55;5.10;;;1.90;;
68509;SDS011;55512;50.102;19.958;2023-12-20T05:17:21;4.30;;;1.50;;
68509;SDS011;55512;50.102;19.958;2023-12-20T05:19:46;4.60;;;2.20;;
68509;SDS011;55512;50.102;19.958;2023-12-20T05:22:12;8.60;;;2.20;;
68509;SDS011;55512;50.102;19.958;2023-12-20T05:24:37;5.10;;;2.00;;
68509;SDS011;55512;50.102;19.958;2023-12-20T05:27:03;5.80;;;2.40;;
68509;SDS011;55512;50.102;19.958;2023-12-20T05:29:28;6.50;;;2.30;;
68509;SDS011;55512;50.102;19.958;2023-12-20T05:31:54;4.70;;;2.00;;
68509;SDS011;55512;50.102;19.958;2023-12-20T05:34:19;6.00;;;2.40;;
68509;SDS011;55512;50.102;19.958;2023-12-20T05:36:45;7.50;;;2.70;;
68509;SDS011;55512;50.102;19.958;2023-12-20T05:39:10;7.40;;;2.50;;
68509;SDS011;55512;50.102;19.958;2023-12-20T05:41:36;6.50;;;2.80;;
68509;SDS011;55512;50.102;19.958;2023-12-20T05:44:02;5.30;;;2.10;;
68509;SDS011;55512;50.102;19.958;2023-12-20T05:46:28;6.20;;;2.40;;
68509;SDS011;55512;50.102;19.958;2023-12-20T05:48:53;6.60;;;2.80;;
68509;SDS011;55512;50.102;19.958;2023-12-20T05:51:18;7.10;;;2.50;;
68509;SDS011;55512;50.102;19.958;2023-12-20T05:53:44;6.70;;;3.30;;
68509;SDS011;55512;50.102;19.958;2023-12-20T05:56:10;6.40;;;2.10;;
68509;SDS011;55512;50.102;19.958;2023-12-20T05:58:37;5.70;;;2.40;;
68509;SDS011;55512;50.102;19.958;2023-12-20T06:01:04;6.40;;;3.20;;
68509;SDS011;55512;50.102;19.958;2023-12-20T06:03:32;6.90;;;2.90;;
68509;SDS011;55512;50.102;19.958;2023-12-20T06:05:57;7.80;;;3.50;;
68509;SDS011;55512;50.102;19.958;2023-12-20T06:08:23;7.50;;;3.40;;
68509;SDS011;55512;50.102;19.958;2023-12-20T06:10:49;7.20;;;3.60;;
68509;SDS011;55512;50.102;19.958;2023-12-20T06:13:14;8.10;;;3.20;;
68509;SDS011;55512;50.102;19.958;2023-12-20T06:15:40;7.70;;;3.80;;
68509;SDS011;55512;50.102;19.958;2023-12-20T06:18:06;8.80;;;3.80;;
68509;SDS011;55512;50.102;19.958;2023-12-20T06:20:32;7.60;;;3.80;;
68509;SDS011;55512;50.102;19.958;2023-12-20T06:22:58;7.60;;;3.40;;
68509;SDS011;55512;50.102;19.958;2023-12-20T06:25:24;8.30;;;3.70;;
68509;SDS011;55512;50.102;19.958;2023-12-20T06:27:50;8.50;;;4.30;;
68509;SDS011;55512;50.102;19.958;2023-12-20T06:30:16;10.40;;;5.40;;
68509;SDS011;55512;50.102;19.958;2023-12-20T06:32:41;10.50;;;5.40;;
68509;SDS011;55512;50.102;19.958;2023-12-20T06:35:08;11.60;;;5.90;;
68509;SDS011;55512;50.102;19.958;2023-12-20T06:37:34;11.30;;;5.40;;
68509;SDS011;55512;50.102;19.958;2023-12-20T06:40:00;10.40;;;6.00;;
68509;SDS011;55512;50.102;19.958;2023-12-20T06:42:25;11.20;;;6.00;;
68509;SDS011;55512;50.102;19.958;2023-12-20T06:44:50;11.20;;;5.90;;
68509;SDS011;55512;50.102;19.958;2023-12-20T06:47:16;12.80;;;5.80;;
68509;SDS011;55512;50.102;19.958;2023-12-20T06:49:42;10.60;;;5.80;;
68509;SDS011;55512;50.102;19.958;2023-12-20T06:52:07;11.30;;;6.00;;
68509;SDS011;55512;50.102;19.958;2023-12-20T06:54:33;13.50;;;6.60;;
68509;SDS011;55512;50.102;19.958;2023-12-20T06:56:59;12.40;;;5.80;;
68509;SDS011;55512;50.102;19.958;2023-12-20T06:59:25;10.90;;;5.70;;
68509;SDS011;55512;50.102;19.958;2023-12-20T07:01:51;10.00;;;5.40;;
68509;SDS011;55512;50.102;19.958;2023-12-20T07:04:17;11.00;;;6.20;;
68509;SDS011;55512;50.102;19.958;2023-12-20T07:06:47;10.50;;;6.20;;
68509;SDS011;55512;50.102;19.958;2023-12-20T07:09:22;10.90;;;6.00;;
68509;SDS011;55512;50.102;19.958;2023-12-20T07:11:48;10.80;;;5.90;;
68509;SDS011;55512;50.102;19.958;2023-12-20T07:14:14;9.30;;;4.90;;
68509;SDS011;55512;50.102;19.958;2023-12-20T07:16:39;11.60;;;5.50;;
68509;SDS011;55512;50.102;19.958;2023-12-20T07:19:05;11.00;;;6.20;;
68509;SDS011;55512;50.102;19.958;2023-12-20T07:21:31;11.80;;;6.00;;
68509;SDS011;55512;50.102;19.958;2023-12-20T07:23:57;13.60;;;6.20;;
68509;SDS011;55512;50.102;19.958;2023-12-20T07:26:22;13.30;;;6.90;;
68509;SDS011;55512;50.102;19.958;2023-12-20T07:28:48;12.90;;;5.70;;
68509;SDS011;55512;50.102;19.958;2023-12-20T07:31:15;11.00;;;6.20;;
68509;SDS011;55512;50.102;19.958;2023-12-20T07:33:41;12.50;;;5.90;;
68509;SDS011;55512;50.102;19.958;2023-12-20T07:36:07;12.40;;;6.70;;
68509;SDS011;55512;50.102;19.958;2023-12-20T07:38:33;10.60;;;5.70;;
68509;SDS011;55512;50.102;19.958;2023-12-20T07:40:58;11.00;;;4.20;;
68509;SDS011;55512;50.102;19.958;2023-12-20T07:43:24;10.20;;;4.90;;
68509;SDS011;55512;50.102;19.958;2023-12-20T07:45:49;10.90;;;5.30;;
68509;SDS011;55512;50.102;19.958;2023-12-20T07:48:15;9.10;;;3.80;;
68509;SDS011;55512;50.102;19.958;2023-12-20T07:50:41;10.50;;;4.70;;
68509;SDS011;55512;50.102;19.958;2023-12-20T07:53:07;9.60;;;4.30;;
68509;SDS011;55512;50.102;19.958;2023-12-20T07:55:32;9.30;;;4.30;;
68509;SDS011;55512;50.102;19.958;2023-12-20T07:57:59;11.00;;;5.30;;
68509;SDS011;55512;50.102;19.958;2023-12-20T08:00:24;9.40;;;4.70;;
68509;SDS011;55512;50.102;19.958;2023-12-20T08:02:52;9.40;;;4.70;;
68509;SDS011;55512;50.102;19.958;2023-12-20T08:05:18;10.60;;;4.80;;
68509;SDS011;55512;50.102;19.958;2023-12-20T08:07:43;8.80;;;3.80;;
68509;SDS011;55512;50.102;19.958;2023-12-20T08:10:09;9.00;;;4.80;;
68509;SDS011;55512;50.102;19.958;2023-12-20T08:12:34;10.30;;;5.10;;
68509;SDS011;55512;50.102;19.958;2023-12-20T08:15:00;10.10;;;5.20;;
68509;SDS011;55512;50.102;19.958;2023-12-20T08:17:26;10.60;;;5.60;;
68509;SDS011;55512;50.102;19.958;2023-12-20T08:19:52;13.70;;;6.30;;
68509;SDS011;55512;50.102;19.958;2023-12-20T08:22:17;8.10;;;4.60;;
68509;SDS011;55512;50.102;19.958;2023-12-20T08:24:43;12.00;;;6.00;;
68509;SDS011;55512;50.102;19.958;2023-12-20T08:27:08;9.80;;;5.40;;
68509;SDS011;55512;50.102;19.958;2023-12-20T08:29:34;11.50;;;6.50;;
68509;SDS011;55512;50.102;19.958;2023-12-20T08:32:01;11.40;;;5.40;;
68509;SDS011;55512;50.102;19.958;2023-12-20T08:34:26;12.40;;;7.00;;
68509;SDS011;55512;50.102;19.958;2023-12-20T08:36:53;11.40;;;6.60;;
68509;SDS011;55512;50.102;19.958;2023-12-20T08:39:18;12.10;;;6.90;;
68509;SDS011;55512;50.102;19.958;2023-12-20T08:41:44;10.10;;;6.10;;
68509;SDS011;55512;50.102;19.958;2023-12-20T08:44:09;11.90;;;6.70;;
68509;SDS011;55512;50.102;19.958;2023-12-20T08:46:35;14.70;;;7.50;;
68509;SDS011;55512;50.102;19.958;2023-12-20T08:49:04;13.90;;;7.30;;
68509;SDS011;55512;50.102;19.958;2023-12-20T08:51:30;12.30;;;6.20;;
68509;SDS011;55512;50.102;19.958;2023-12-20T08:53:55;11.60;;;6.40;;
68509;SDS011;55512;50.102;19.958;2023-12-20T08:56:20;13.40;;;6.50;;
68509;SDS011;55512;50.102;19.958;2023-12-20T08:58:46;12.10;;;6.90;;
68509;SDS011;55512;50.102;19.958;2023-12-20T09:01:13;13.20;;;8.60;;
68509;SDS011;55512;50.102;19.958;2023-12-20T09:03:39;14.40;;;8.10;;
68509;SDS011;55512;50.102;19.958;2023-12-20T09:06:05;14.10;;;7.30;;
68509;SDS011;55512;50.102;19.958;2023-12-20T09:08:31;16.80;;;9.50;;
68509;SDS011;55512;50.102;19.958;2023-12-20T09:10:57;14.80;;;7.90;;
68509;SDS011;55512;50.102;19.958;2023-12-20T09:13:22;13.70;;;7.90;;
68509;SDS011;55512;50.102;19.958;2023-12-20T09:15:54;14.70;;;7.90;;
68509;SDS011;55512;50.102;19.958;2023-12-20T09:18:20;14.10;;;7.00;;
68509;SDS011;55512;50.102;19.958;2023-12-20T09:20:46;15.00;;;8.00;;
68509;SDS011;55512;50.102;19.958;2023-12-20T09:23:11;13.80;;;6.60;;
68509;SDS011;55512;50.102;19.958;2023-12-20T09:25:37;16.70;;;8.80;;
68509;SDS011;55512;50.102;19.958;2023-12-20T09:28:02;14.30;;;8.50;;
68509;SDS011;55512;50.102;19.958;2023-12-20T09:30:28;17.20;;;8.50;;
68509;SDS011;55512;50.102;19.958;2023-12-20T09:32:55;15.20;;;7.80;;
68509;SDS011;55512;50.102;19.958;2023-12-20T09:35:20;14.80;;;8.60;;
68509;SDS011;55512;50.102;19.958;2023-12-20T09:37:46;13.40;;;6.20;;
68509;SDS011;55512;50.102;19.958;2023-12-20T09:40:13;12.70;;;6.60;;
68509;SDS011;55512;50.102;19.958;2023-12-20T09:42:51;15.10;;;8.10;;
68509;SDS011;55512;50.102;19.958;2023-12-20T09:45:23;12.50;;;6.70;;
68509;SDS011;55512;50.102;19.958;2023-12-20T09:47:58;15.80;;;9.70;;
68509;SDS011;55512;50.102;19.958;2023-12-20T09:50:24;16.90;;;9.50;;
68509;SDS011;55512;50.102;19.958;2023-12-20T09:52:52;14.30;;;8.70;;
68509;SDS011;55512;50.102;19.958;2023-12-20T09:55:19;13.80;;;7.60;;
68509;SDS011;55512;50.102;19.958;2023-12-20T09:57:48;13.30;;;7.20;;
68509;SDS011;55512;50.102;19.958;2023-12-20T10:00:15;16.70;;;8.60;;
68509;SDS011;55512;50.102;19.958;2023-12-20T10:02:47;12.90;;;7.90;;
68509;SDS011;55512;50.102;19.958;2023-12-20T10:05:17;13.80;;;6.70;;
68509;SDS011;55512;50.102;19.958;2023-12-20T10:07:46;10.80;;;6.30;;
68509;SDS011;55512;50.102;19.958;2023-12-20T10:10:13;10.60;;;6.30;;
68509;SDS011;55512;50.102;19.958;2023-12-20T10:12:39;9.60;;;4.40;;
68509;SDS011;55512;50.102;19.958;2023-12-20T10:15:06;10.00;;;5.20;;
68509;SDS011;55512;50.102;19.958;2023-12-20T10:17:31;13.00;;;6.10;;
68509;SDS011;55512;50.102;19.958;2023-12-20T10:19:58;9.40;;;5.00;;
68509;SDS011;55512;50.102;19.958;2023-12-20T10:22:23;11.90;;;7.00;;
68509;SDS011;55512;50.102;19.958;2023-12-20T10:24:49;13.10;;;5.90;;
68509;SDS011;55512;50.102;19.958;2023-12-20T10:27:17;9.10;;;5.60;;
68509;SDS011;55512;50.102;19.958;2023-12-20T10:29:44;8.80;;;3.40;;
68509;SDS011;55512;50.102;19.958;2023-12-20T10:32:24;9.70;;;4.70;;
68509;SDS011;55512;50.102;19.958;2023-12-20T10:34:55;7.90;;;4.10;;
68509;SDS011;55512;50.102;19.958;2023-12-20T10:37:21;9.50;;;5.80;;
68509;SDS011;55512;50.102;19.958;2023-12-20T10:39:50;11.40;;;5.50;;
68509;SDS011;55512;50.102;19.958;2023-12-20T10:42:28;12.40;;;6.60;;
68509;SDS011;55512;50.102;19.958;2023-12-20T10:44:56;10.60;;;4.90;;
68509;SDS011;55512;50.102;19.958;2023-12-20T10:47:22;10.90;;;4.80;;
68509;SDS011;55512;50.102;19.958;2023-12-20T10:49:52;11.00;;;5.20;;
68509;SDS011;55512;50.102;19.958;2023-12-20T10:52:17;9.90;;;5.30;;
68509;SDS011;55512;50.102;19.958;2023-12-20T10:54:44;11.60;;;5.60;;
68509;SDS011;55512;50.102;19.958;2023-12-20T10:57:11;9.80;;;5.50;;
68509;SDS011;55512;50.102;19.958;2023-12-20T10:59:37;11.30;;;6.20;;
68509;SDS011;55512;50.102;19.958;2023-12-20T11:02:04;11.70;;;5.50;;
68509;SDS011;55512;50.102;19.958;2023-12-20T11:04:53;12.10;;;6.40;;
68509;SDS011;55512;50.102;19.958;2023-12-20T11:07:32;11.50;;;5.50;;
68509;SDS011;55512;50.102;19.958;2023-12-20T11:10:16;10.90;;;6.30;;
68509;SDS011;55512;50.102;19.958;2023-12-20T11:12:54;12.80;;;6.60;;
68509;SDS011;55512;50.102;19.958;2023-12-20T11:15:27;12.10;;;6.60;;
68509;SDS011;55512;50.102;19.958;2023-12-20T11:17:57;11.20;;;5.30;;
68509;SDS011;55512;50.102;19.958;2023-12-20T11:20:24;11.00;;;6.20;;
68509;SDS011;55512;50.102;19.958;2023-12-20T11:23:02;11.50;;;5.80;;
68509;SDS011;55512;50.102;19.958;2023-12-20T11:25:28;10.90;;;5.50;;
68509;SDS011;55512;50.102;19.958;2023-12-20T11:28:09;13.30;;;7.10;;
68509;SDS011;55512;50.102;19.958;2023-12-20T11:30:45;12.10;;;6.70;;
68509;SDS011;55512;50.102;19.958;2023-12-20T11:33:15;11.50;;;6.10;;
68509;SDS011;55512;50.102;19.958;2023-12-20T11:35:42;10.40;;;4.80;;
68509;SDS011;55512;50.102;19.958;2023-12-20T11:38:09;9.50;;;4.10;;
68509;SDS011;55512;50.102;19.958;2023-12-20T11:40:36;9.40;;;4.60;;
68509;SDS011;55512;50.102;19.958;2023-12-20T11:43:03;12.20;;;5.30;;
68509;SDS011;55512;50.102;19.958;2023-12-20T11:45:29;8.00;;;3.80;;
68509;SDS011;55512;50.102;19.958;2023-12-20T11:47:56;9.50;;;4.30;;
68509;SDS011;55512;50.102;19.958;2023-12-20T11:50:23;9.90;;;4.40;;
68509;SDS011;55512;50.102;19.958;2023-12-20T11:52:51;9.20;;;4.90;;
68509;SDS011;55512;50.102;19.958;2023-12-20T11:55:17;7.90;;;4.10;;
68509;SDS011;55512;50.102;19.958;2023-12-20T11:57:43;11.40;;;5.80;;
68509;SDS011;55512;50.102;19.958;2023-12-20T12:00:13;10.20;;;4.50;;
68509;SDS011;55512;50.102;19.958;2023-12-20T12:02:39;8.10;;;4.30;;
68509;SDS011;55512;50.102;19.958;2023-12-20T12:05:06;9.30;;;4.10;;
68509;SDS011;55512;50.102;19.958;2023-12-20T12:07:32;7.10;;;2.80;;
68509;SDS011;55512;50.102;19.958;2023-12-20T12:09:58;7.20;;;3.50;;
68509;SDS011;55512;50.102;19.958;2023-12-20T12:12:24;7.40;;;3.00;;
68509;SDS011;55512;50.102;19.958;2023-12-20T12:14:52;8.80;;;4.30;;
68509;SDS011;55512;50.102;19.958;2023-12-20T12:17:18;8.00;;;3.40;;
68509;SDS011;55512;50.102;19.958;2023-12-20T12:19:44;7.40;;;3.10;;
68509;SDS011;55512;50.102;19.958;2023-12-20T12:22:10;7.30;;;3.30;;
68509;SDS011;55512;50.102;19.958;2023-12-20T12:27:08;8.10;;;4.10;;
68509;SDS011;55512;50.102;19.958;2023-12-20T12:29:35;7.50;;;3.90;;
68509;SDS011;55512;50.102;19.958;2023-12-20T12:32:04;7.30;;;3.90;;
68509;SDS011;55512;50.102;19.958;2023-12-20T12:34:31;9.00;;;4.30;;
68509;SDS011;55512;50.102;19.958;2023-12-20T12:36:57;6.70;;;2.90;;
68509;SDS011;55512;50.102;19.958;2023-12-20T12:39:24;8.00;;;4.00;;
68509;SDS011;55512;50.102;19.958;2023-12-20T12:41:53;7.20;;;3.70;;
68509;SDS011;55512;50.102;19.958;2023-12-20T12:44:19;7.80;;;3.60;;
68509;SDS011;55512;50.102;19.958;2023-12-20T12:46:47;9.40;;;4.10;;
68509;SDS011;55512;50.102;19.958;2023-12-20T12:49:16;8.40;;;3.70;;
68509;SDS011;55512;50.102;19.958;2023-12-20T12:51:42;7.60;;;3.40;;
68509;SDS011;55512;50.102;19.958;2023-12-20T12:54:09;8.70;;;4.50;;
68509;SDS011;55512;50.102;19.958;2023-12-20T12:56:35;8.50;;;4.10;;
68509;SDS011;55512;50.102;19.958;2023-12-20T12:59:02;10.00;;;4.50;;
68509;SDS011;55512;50.102;19.958;2023-12-20T13:01:27;9.80;;;5.50;;
68509;SDS011;55512;50.102;19.958;2023-12-20T13:03:53;9.30;;;4.30;;
68509;SDS011;55512;50.102;19.958;2023-12-20T13:06:19;8.70;;;4.10;;
68509;SDS011;55512;50.102;19.958;2023-12-20T13:08:45;10.80;;;5.40;;
68509;SDS011;55512;50.102;19.958;2023-12-20T13:11:11;8.10;;;4.10;;
68509;SDS011;55512;50.102;19.958;2023-12-20T13:13:36;11.30;;;5.00;;
68509;SDS011;55512;50.102;19.958;2023-12-20T13:16:02;9.70;;;5.50;;
68509;SDS011;55512;50.102;19.958;2023-12-20T13:18:27;9.00;;;4.80;;
68509;SDS011;55512;50.102;19.958;2023-12-20T13:20:53;8.50;;;4.60;;
68509;SDS011;55512;50.102;19.958;2023-12-20T13:23:18;9.50;;;4.40;;
68509;SDS011;55512;50.102;19.958;2023-12-20T13:25:44;9.80;;;4.20;;
68509;SDS011;55512;50.102;19.958;2023-12-20T13:28:13;11.50;;;6.00;;
68509;SDS011;55512;50.102;19.958;2023-12-20T13:30:39;10.30;;;5.70;;
68509;SDS011;55512;50.102;19.958;2023-12-20T13:33:05;10.30;;;5.50;;
68509;SDS011;55512;50.102;19.958;2023-12-20T13:35:31;8.50;;;4.40;;
68509;SDS011;55512;50.102;19.958;2023-12-20T13:37:57;11.60;;;5.40;;
68509;SDS011;55512;50.102;19.958;2023-12-20T13:40:23;10.50;;;6.10;;
68509;SDS011;55512;50.102;19.958;2023-12-20T13:42:49;10.30;;;5.30;;
68509;SDS011;55512;50.102;19.958;2023-12-20T13:45:15;10.40;;;5.10;;
68509;SDS011;55512;50.102;19.958;2023-12-20T13:47:41;9.00;;;4.80;;
68509;SDS011;55512;50.102;19.958;2023-12-20T13:50:07;9.60;;;5.70;;
68509;SDS011;55512;50.102;19.958;2023-12-20T13:52:33;10.00;;;5.80;;
68509;SDS011;55512;50.102;19.958;2023-12-20T13:54:58;8.60;;;4.10;;
68509;SDS011;55512;50.102;19.958;2023-12-20T13:57:23;9.30;;;4.60;;
68509;SDS011;55512;50.102;19.958;2023-12-20T13:59:49;10.10;;;4.90;;
68509;SDS011;55512;50.102;19.958;2023-12-20T14:02:16;9.80;;;5.70;;
68509;SDS011;55512;50.102;19.958;2023-12-20T14:04:42;11.30;;;5.20;;
68509;SDS011;55512;50.102;19.958;2023-12-20T14:07:07;9.30;;;4.40;;
68509;SDS011;55512;50.102;19.958;2023-12-20T14:09:34;12.70;;;5.80;;
68509;SDS011;55512;50.102;19.958;2023-12-20T14:12:00;9.90;;;4.60;;
68509;SDS011;55512;50.102;19.958;2023-12-20T14:14:26;12.20;;;5.30;;
68509;SDS011;55512;50.102;19.958;2023-12-20T14:16:51;10.20;;;5.10;;
68509;SDS011;55512;50.102;19.958;2023-12-20T14:19:17;9.70;;;4.70;;
68509;SDS011;55512;50.102;19.958;2023-12-20T14:21:43;11.00;;;5.10;;
68509;SDS011;55512;50.102;19.958;2023-12-20T14:24:13;10.40;;;5.00;;
68509;SDS011;55512;50.102;19.958;2023-12-20T14:26:40;10.20;;;5.20;;